sensor_id;sensor_type;location;lat;lon;timestamp;P1;durP1;ratioP1;P2;durP2;ratioP2
32295;SDS011;18781;51.550;5.418;2023-05-10T00:01:53;24.10;;;17.45;;
32295;SDS011;18781;51.550;5.418;2023-05-10T00:04:19;21.98;;;16.92;;
32295;SDS011;18781;51.550;5.418;2023-05-10T00:06:45;26.83;;;17.33;;
32295;SDS011;18781;51.550;5.418;2023-05-10T00:09:11;24.70;;;18.40;;
32295;SDS011;18781;51.550;5.418;2023-05-10T00:11:36;25.30;;;17.88;;
32295;SDS011;18781;51.550;5.418;2023-05-10T00:14:02;25.90;;;18.50;;
32295;SDS011;18781;51.550;5.418;2023-05-10T00:16:27;24.05;;;18.15;;
32295;SDS011;18781;51.550;5.418;2023-05-10T00:18:53;26.27;;;18.70;;
32295;SDS011;18781;51.550;5.418;2023-05-10T00:21:18;28.70;;;20.40;;
32295;SDS011;18781;51.550;5.418;2023-05-10T00:23:44;29.48;;;19.60;;
32295;SDS011;18781;51.550;5.418;2023-05-10T00:26:10;24.52;;;19.10;;
32295;SDS011;18781;51.550;5.418;2023-05-10T00:28:35;26.23;;;18.90;;
32295;SDS011;18781;51.550;5.418;2023-05-10T00:31:01;26.38;;;18.10;;
32295;SDS011;18781;51.550;5.418;2023-05-10T00:33:27;25.90;;;18.17;;
32295;SDS011;18781;51.550;5.418;2023-05-10T00:35:52;25.98;;;18.65;;
32295;SDS011;18781;51.550;5.418;2023-05-10T00:38:18;25.45;;;19.75;;
32295;SDS011;18781;51.550;5.418;2023-05-10T00:40:43;28.70;;;19.35;;
32295;SDS011;18781;51.550;5.418;2023-05-10T00:43:09;25.98;;;18.75;;
32295;SDS011;18781;51.550;5.418;2023-05-10T00:45:35;30.23;;;20.35;;
32295;SDS011;18781;51.550;5.418;2023-05-10T00:48:01;31.08;;;20.40;;
32295;SDS011;18781;51.550;5.418;2023-05-10T00:50:28;27.05;;;20.00;;
32295;SDS011;18781;51.550;5.418;2023-05-10T00:52:55;34.45;;;21.48;;
32295;SDS011;18781;51.550;5.418;2023-05-10T00:55:22;36.03;;;22.00;;
32295;SDS011;18781;51.550;5.418;2023-05-10T00:57:48;32.65;;;21.40;;
32295;SDS011;18781;51.550;5.418;2023-05-10T01:00:14;34.65;;;21.83;;
32295;SDS011;18781;51.550;5.418;2023-05-10T01:02:43;31.05;;;21.30;;
32295;SDS011;18781;51.550;5.418;2023-05-10T01:05:10;31.85;;;21.63;;
32295;SDS011;18781;51.550;5.418;2023-05-10T01:07:36;35.03;;;22.15;;
32295;SDS011;18781;51.550;5.418;2023-05-10T01:10:01;35.72;;;22.95;;
32295;SDS011;18781;51.550;5.418;2023-05-10T01:12:27;29.70;;;22.10;;
32295;SDS011;18781;51.550;5.418;2023-05-10T01:14:53;32.80;;;21.83;;
32295;SDS011;18781;51.550;5.418;2023-05-10T01:17:19;34.83;;;23.38;;
32295;SDS011;18781;51.550;5.418;2023-05-10T01:19:46;38.85;;;25.63;;
32295;SDS011;18781;51.550;5.418;2023-05-10T01:27:43;34.78;;;25.00;;
32295;SDS011;18781;51.550;5.418;2023-05-10T01:33:08;43.72;;;27.02;;
32295;SDS011;18781;51.550;5.418;2023-05-10T01:35:47;51.63;;;30.85;;
32295;SDS011;18781;51.550;5.418;2023-05-10T01:41:07;59.78;;;36.30;;
32295;SDS011;18781;51.550;5.418;2023-05-10T01:43:54;73.20;;;41.10;;
32295;SDS011;18781;51.550;5.418;2023-05-10T01:46:35;76.50;;;42.53;;
32295;SDS011;18781;51.550;5.418;2023-05-10T01:49:03;74.28;;;43.05;;
32295;SDS011;18781;51.550;5.418;2023-05-10T01:51:40;79.10;;;45.03;;
32295;SDS011;18781;51.550;5.418;2023-05-10T01:54:09;85.43;;;48.83;;
32295;SDS011;18781;51.550;5.418;2023-05-10T01:56:38;83.23;;;47.37;;
32295;SDS011;18781;51.550;5.418;2023-05-10T01:59:06;86.95;;;48.55;;
32295;SDS011;18781;51.550;5.418;2023-05-10T02:01:38;80.15;;;47.70;;
32295;SDS011;18781;51.550;5.418;2023-05-10T02:04:04;83.50;;;47.47;;
32295;SDS011;18781;51.550;5.418;2023-05-10T02:06:32;86.38;;;47.47;;
32295;SDS011;18781;51.550;5.418;2023-05-10T02:08:58;86.38;;;48.80;;
32295;SDS011;18781;51.550;5.418;2023-05-10T02:11:27;77.22;;;47.47;;
32295;SDS011;18781;51.550;5.418;2023-05-10T02:13:54;79.80;;;48.45;;
32295;SDS011;18781;51.550;5.418;2023-05-10T02:16:21;80.88;;;49.35;;
32295;SDS011;18781;51.550;5.418;2023-05-10T02:18:50;71.93;;;46.75;;
32295;SDS011;18781;51.550;5.418;2023-05-10T02:21:17;73.65;;;47.30;;
32295;SDS011;18781;51.550;5.418;2023-05-10T02:23:45;78.38;;;47.20;;
32295;SDS011;18781;51.550;5.418;2023-05-10T02:26:13;78.93;;;49.80;;
32295;SDS011;18781;51.550;5.418;2023-05-10T02:28:40;85.70;;;50.50;;
32295;SDS011;18781;51.550;5.418;2023-05-10T02:31:07;79.63;;;48.35;;
32295;SDS011;18781;51.550;5.418;2023-05-10T02:33:35;83.68;;;51.80;;
32295;SDS011;18781;51.550;5.418;2023-05-10T02:36:04;87.38;;;51.85;;
32295;SDS011;18781;51.550;5.418;2023-05-10T02:38:31;88.35;;;52.05;;
32295;SDS011;18781;51.550;5.418;2023-05-10T02:40:59;90.15;;;53.65;;
32295;SDS011;18781;51.550;5.418;2023-05-10T02:43:24;83.65;;;49.92;;
32295;SDS011;18781;51.550;5.418;2023-05-10T02:45:51;85.20;;;52.42;;
32295;SDS011;18781;51.550;5.418;2023-05-10T02:48:16;82.60;;;53.08;;
32295;SDS011;18781;51.550;5.418;2023-05-10T02:50:44;92.22;;;55.58;;
32295;SDS011;18781;51.550;5.418;2023-05-10T02:53:11;92.80;;;54.45;;
32295;SDS011;18781;51.550;5.418;2023-05-10T02:55:41;94.10;;;57.40;;
32295;SDS011;18781;51.550;5.418;2023-05-10T02:58:10;91.78;;;57.05;;
32295;SDS011;18781;51.550;5.418;2023-05-10T03:00:36;92.25;;;59.38;;
32295;SDS011;18781;51.550;5.418;2023-05-10T03:03:01;99.18;;;60.80;;
32295;SDS011;18781;51.550;5.418;2023-05-10T03:05:27;97.75;;;59.30;;
32295;SDS011;18781;51.550;5.418;2023-05-10T03:07:52;95.47;;;60.95;;
32295;SDS011;18781;51.550;5.418;2023-05-10T03:10:19;100.90;;;61.63;;
32295;SDS011;18781;51.550;5.418;2023-05-10T03:18:30;103.63;;;61.97;;
32295;SDS011;18781;51.550;5.418;2023-05-10T03:21:07;98.88;;;61.30;;
32295;SDS011;18781;51.550;5.418;2023-05-10T03:23:40;100.90;;;61.05;;
32295;SDS011;18781;51.550;5.418;2023-05-10T03:26:08;98.07;;;62.70;;
32295;SDS011;18781;51.550;5.418;2023-05-10T03:28:34;103.25;;;63.20;;
32295;SDS011;18781;51.550;5.418;2023-05-10T03:31:00;98.57;;;60.65;;
32295;SDS011;18781;51.550;5.418;2023-05-10T03:33:29;100.30;;;62.38;;
32295;SDS011;18781;51.550;5.418;2023-05-10T03:35:54;105.07;;;61.42;;
32295;SDS011;18781;51.550;5.418;2023-05-10T03:38:20;93.68;;;58.22;;
32295;SDS011;18781;51.550;5.418;2023-05-10T03:40:45;92.15;;;57.13;;
32295;SDS011;18781;51.550;5.418;2023-05-10T03:43:11;91.13;;;57.20;;
32295;SDS011;18781;51.550;5.418;2023-05-10T03:45:37;82.95;;;52.80;;
32295;SDS011;18781;51.550;5.418;2023-05-10T03:48:02;92.50;;;54.67;;
32295;SDS011;18781;51.550;5.418;2023-05-10T03:50:28;88.25;;;53.60;;
32295;SDS011;18781;51.550;5.418;2023-05-10T03:52:57;88.20;;;53.30;;
32295;SDS011;18781;51.550;5.418;2023-05-10T03:55:23;86.90;;;52.70;;
32295;SDS011;18781;51.550;5.418;2023-05-10T03:57:48;81.35;;;51.88;;
32295;SDS011;18781;51.550;5.418;2023-05-10T04:00:18;88.97;;;54.58;;
32295;SDS011;18781;51.550;5.418;2023-05-10T04:02:44;85.20;;;52.78;;
32295;SDS011;18781;51.550;5.418;2023-05-10T04:05:10;80.45;;;50.13;;
32295;SDS011;18781;51.550;5.418;2023-05-10T04:07:35;80.32;;;51.10;;
32295;SDS011;18781;51.550;5.418;2023-05-10T04:10:01;84.70;;;50.72;;
32295;SDS011;18781;51.550;5.418;2023-05-10T04:12:26;83.95;;;51.80;;
32295;SDS011;18781;51.550;5.418;2023-05-10T04:14:52;89.70;;;54.03;;
32295;SDS011;18781;51.550;5.418;2023-05-10T04:17:17;90.05;;;53.80;;
32295;SDS011;18781;51.550;5.418;2023-05-10T04:19:43;105.40;;;57.00;;
32295;SDS011;18781;51.550;5.418;2023-05-10T04:22:09;104.10;;;55.95;;
32295;SDS011;18781;51.550;5.418;2023-05-10T04:24:34;110.45;;;60.83;;
32295;SDS011;18781;51.550;5.418;2023-05-10T04:27:00;115.35;;;59.83;;
32295;SDS011;18781;51.550;5.418;2023-05-10T04:29:25;101.50;;;56.50;;
32295;SDS011;18781;51.550;5.418;2023-05-10T04:31:51;96.03;;;54.22;;
32295;SDS011;18781;51.550;5.418;2023-05-10T04:34:17;92.07;;;48.85;;
32295;SDS011;18781;51.550;5.418;2023-05-10T04:36:42;84.82;;;48.60;;
32295;SDS011;18781;51.550;5.418;2023-05-10T04:39:08;90.80;;;47.35;;
32295;SDS011;18781;51.550;5.418;2023-05-10T04:41:34;78.05;;;44.30;;
32295;SDS011;18781;51.550;5.418;2023-05-10T04:44:00;71.72;;;43.10;;
32295;SDS011;18781;51.550;5.418;2023-05-10T04:46:25;74.35;;;42.90;;
32295;SDS011;18781;51.550;5.418;2023-05-10T04:48:51;64.20;;;39.63;;
32295;SDS011;18781;51.550;5.418;2023-05-10T04:51:16;63.75;;;38.55;;
32295;SDS011;18781;51.550;5.418;2023-05-10T04:53:42;66.13;;;38.40;;
32295;SDS011;18781;51.550;5.418;2023-05-10T04:56:07;64.55;;;37.58;;
32295;SDS011;18781;51.550;5.418;2023-05-10T04:58:33;61.05;;;35.53;;
32295;SDS011;18781;51.550;5.418;2023-05-10T05:01:05;58.85;;;35.10;;
32295;SDS011;18781;51.550;5.418;2023-05-10T05:03:32;56.15;;;34.00;;
32295;SDS011;18781;51.550;5.418;2023-05-10T05:05:58;54.95;;;34.05;;
32295;SDS011;18781;51.550;5.418;2023-05-10T05:08:24;57.08;;;35.28;;
32295;SDS011;18781;51.550;5.418;2023-05-10T05:10:49;62.22;;;34.85;;
32295;SDS011;18781;51.550;5.418;2023-05-10T05:13:15;59.88;;;36.42;;
32295;SDS011;18781;51.550;5.418;2023-05-10T05:15:40;59.72;;;35.05;;
32295;SDS011;18781;51.550;5.418;2023-05-10T05:18:06;50.20;;;33.58;;
32295;SDS011;18781;51.550;5.418;2023-05-10T05:20:32;53.75;;;33.65;;
32295;SDS011;18781;51.550;5.418;2023-05-10T05:22:59;56.17;;;34.33;;
32295;SDS011;18781;51.550;5.418;2023-05-10T05:25:24;58.03;;;35.58;;
32295;SDS011;18781;51.550;5.418;2023-05-10T05:27:50;58.88;;;34.38;;
32295;SDS011;18781;51.550;5.418;2023-05-10T05:30:15;59.38;;;34.83;;
32295;SDS011;18781;51.550;5.418;2023-05-10T05:32:41;49.40;;;33.25;;
32295;SDS011;18781;51.550;5.418;2023-05-10T05:35:07;57.33;;;34.47;;
32295;SDS011;18781;51.550;5.418;2023-05-10T05:37:33;52.42;;;33.25;;
32295;SDS011;18781;51.550;5.418;2023-05-10T05:39:58;51.75;;;33.97;;
32295;SDS011;18781;51.550;5.418;2023-05-10T05:42:26;55.33;;;32.88;;
32295;SDS011;18781;51.550;5.418;2023-05-10T05:44:52;54.15;;;33.42;;
32295;SDS011;18781;51.550;5.418;2023-05-10T05:47:17;56.80;;;34.40;;
32295;SDS011;18781;51.550;5.418;2023-05-10T05:49:43;60.47;;;34.15;;
32295;SDS011;18781;51.550;5.418;2023-05-10T05:52:10;50.10;;;33.53;;
32295;SDS011;18781;51.550;5.418;2023-05-10T05:54:36;54.58;;;33.78;;
32295;SDS011;18781;51.550;5.418;2023-05-10T05:57:02;53.58;;;32.83;;
32295;SDS011;18781;51.550;5.418;2023-05-10T05:59:27;51.17;;;32.20;;
32295;SDS011;18781;51.550;5.418;2023-05-10T06:01:53;53.05;;;32.65;;
32295;SDS011;18781;51.550;5.418;2023-05-10T06:04:19;53.42;;;33.78;;
32295;SDS011;18781;51.550;5.418;2023-05-10T06:06:44;55.05;;;33.80;;
32295;SDS011;18781;51.550;5.418;2023-05-10T06:09:10;59.72;;;33.95;;
32295;SDS011;18781;51.550;5.418;2023-05-10T06:11:36;59.08;;;35.60;;
32295;SDS011;18781;51.550;5.418;2023-05-10T06:14:02;54.33;;;34.22;;
32295;SDS011;18781;51.550;5.418;2023-05-10T06:16:29;59.58;;;33.58;;
32295;SDS011;18781;51.550;5.418;2023-05-10T06:18:55;52.80;;;33.53;;
32295;SDS011;18781;51.550;5.418;2023-05-10T06:21:21;51.72;;;33.65;;
32295;SDS011;18781;51.550;5.418;2023-05-10T06:23:47;57.92;;;32.80;;
32295;SDS011;18781;51.550;5.418;2023-05-10T06:26:12;56.30;;;33.88;;
32295;SDS011;18781;51.550;5.418;2023-05-10T06:28:38;52.95;;;33.53;;
32295;SDS011;18781;51.550;5.418;2023-05-10T06:31:05;53.53;;;33.20;;
32295;SDS011;18781;51.550;5.418;2023-05-10T06:33:31;53.00;;;33.40;;
32295;SDS011;18781;51.550;5.418;2023-05-10T06:35:57;62.53;;;34.13;;
32295;SDS011;18781;51.550;5.418;2023-05-10T06:38:23;54.35;;;34.05;;
32295;SDS011;18781;51.550;5.418;2023-05-10T06:40:48;51.33;;;32.80;;
32295;SDS011;18781;51.550;5.418;2023-05-10T06:43:14;56.80;;;34.35;;
32295;SDS011;18781;51.550;5.418;2023-05-10T06:45:40;53.05;;;33.65;;
32295;SDS011;18781;51.550;5.418;2023-05-10T06:48:06;56.40;;;34.85;;
32295;SDS011;18781;51.550;5.418;2023-05-10T06:50:32;63.97;;;36.28;;
32295;SDS011;18781;51.550;5.418;2023-05-10T06:52:58;60.90;;;36.67;;
32295;SDS011;18781;51.550;5.418;2023-05-10T06:55:24;58.75;;;37.03;;
32295;SDS011;18781;51.550;5.418;2023-05-10T06:57:49;55.80;;;35.30;;
32295;SDS011;18781;51.550;5.418;2023-05-10T07:00:15;59.75;;;38.28;;
32295;SDS011;18781;51.550;5.418;2023-05-10T07:02:41;58.38;;;37.22;;
32295;SDS011;18781;51.550;5.418;2023-05-10T07:05:07;59.67;;;37.63;;
32295;SDS011;18781;51.550;5.418;2023-05-10T07:07:33;63.20;;;37.53;;
32295;SDS011;18781;51.550;5.418;2023-05-10T07:09:59;61.00;;;37.22;;
32295;SDS011;18781;51.550;5.418;2023-05-10T07:12:25;64.25;;;38.25;;
32295;SDS011;18781;51.550;5.418;2023-05-10T07:14:51;62.92;;;38.33;;
32295;SDS011;18781;51.550;5.418;2023-05-10T07:17:17;59.40;;;37.75;;
32295;SDS011;18781;51.550;5.418;2023-05-10T07:19:42;60.25;;;37.08;;
32295;SDS011;18781;51.550;5.418;2023-05-10T07:22:08;59.45;;;37.67;;
32295;SDS011;18781;51.550;5.418;2023-05-10T07:24:34;61.30;;;37.50;;
32295;SDS011;18781;51.550;5.418;2023-05-10T07:26:59;56.25;;;37.83;;
32295;SDS011;18781;51.550;5.418;2023-05-10T07:29:25;71.53;;;39.00;;
32295;SDS011;18781;51.550;5.418;2023-05-10T07:31:51;61.88;;;37.92;;
32295;SDS011;18781;51.550;5.418;2023-05-10T07:34:16;56.92;;;36.90;;
32295;SDS011;18781;51.550;5.418;2023-05-10T07:36:42;55.97;;;35.50;;
32295;SDS011;18781;51.550;5.418;2023-05-10T07:39:07;59.58;;;34.55;;
32295;SDS011;18781;51.550;5.418;2023-05-10T07:41:33;51.17;;;31.23;;
32295;SDS011;18781;51.550;5.418;2023-05-10T07:43:58;46.00;;;29.40;;
32295;SDS011;18781;51.550;5.418;2023-05-10T07:46:24;48.05;;;28.15;;
32295;SDS011;18781;51.550;5.418;2023-05-10T07:48:50;44.10;;;27.50;;
32295;SDS011;18781;51.550;5.418;2023-05-10T07:51:15;44.38;;;26.60;;
32295;SDS011;18781;51.550;5.418;2023-05-10T07:53:41;45.45;;;27.20;;
32295;SDS011;18781;51.550;5.418;2023-05-10T07:56:28;42.03;;;25.63;;
32295;SDS011;18781;51.550;5.418;2023-05-10T07:58:56;37.08;;;23.38;;
32295;SDS011;18781;51.550;5.418;2023-05-10T08:01:23;42.53;;;25.13;;
32295;SDS011;18781;51.550;5.418;2023-05-10T08:03:49;47.67;;;24.20;;
32295;SDS011;18781;51.550;5.418;2023-05-10T08:06:16;37.90;;;22.90;;
32295;SDS011;18781;51.550;5.418;2023-05-10T08:08:43;40.33;;;22.33;;
32295;SDS011;18781;51.550;5.418;2023-05-10T08:11:10;33.47;;;22.00;;
32295;SDS011;18781;51.550;5.418;2023-05-10T08:13:36;35.08;;;20.95;;
32295;SDS011;18781;51.550;5.418;2023-05-10T08:16:01;31.08;;;20.65;;
32295;SDS011;18781;51.550;5.418;2023-05-10T08:18:27;37.40;;;21.95;;
32295;SDS011;18781;51.550;5.418;2023-05-10T08:20:53;30.20;;;20.45;;
32295;SDS011;18781;51.550;5.418;2023-05-10T08:23:19;33.88;;;19.08;;
32295;SDS011;18781;51.550;5.418;2023-05-10T08:25:44;28.30;;;18.10;;
32295;SDS011;18781;51.550;5.418;2023-05-10T08:28:10;27.83;;;17.10;;
32295;SDS011;18781;51.550;5.418;2023-05-10T08:30:36;31.58;;;16.90;;
32295;SDS011;18781;51.550;5.418;2023-05-10T08:33:01;24.83;;;16.02;;
32295;SDS011;18781;51.550;5.418;2023-05-10T08:35:27;26.50;;;15.38;;
32295;SDS011;18781;51.550;5.418;2023-05-10T08:37:53;27.23;;;15.65;;
32295;SDS011;18781;51.550;5.418;2023-05-10T08:40:19;22.25;;;14.13;;
32295;SDS011;18781;51.550;5.418;2023-05-10T08:42:48;21.63;;;13.93;;
32295;SDS011;18781;51.550;5.418;2023-05-10T08:45:22;20.63;;;13.20;;
32295;SDS011;18781;51.550;5.418;2023-05-10T08:47:48;23.00;;;14.30;;
32295;SDS011;18781;51.550;5.418;2023-05-10T08:50:15;21.58;;;14.43;;
32295;SDS011;18781;51.550;5.418;2023-05-10T08:55:10;21.83;;;13.07;;
32295;SDS011;18781;51.550;5.418;2023-05-10T08:57:36;19.08;;;12.30;;
32295;SDS011;18781;51.550;5.418;2023-05-10T09:00:02;20.70;;;12.45;;
32295;SDS011;18781;51.550;5.418;2023-05-10T09:02:28;18.48;;;11.15;;
32295;SDS011;18781;51.550;5.418;2023-05-10T09:04:53;20.00;;;10.82;;
32295;SDS011;18781;51.550;5.418;2023-05-10T09:07:19;20.42;;;11.55;;
32295;SDS011;18781;51.550;5.418;2023-05-10T09:09:45;17.42;;;11.15;;
32295;SDS011;18781;51.550;5.418;2023-05-10T09:12:11;21.38;;;11.63;;
32295;SDS011;18781;51.550;5.418;2023-05-10T09:14:38;23.85;;;11.55;;
32295;SDS011;18781;51.550;5.418;2023-05-10T09:17:04;17.90;;;10.75;;
32295;SDS011;18781;51.550;5.418;2023-05-10T09:19:29;17.67;;;11.07;;
32295;SDS011;18781;51.550;5.418;2023-05-10T09:21:55;15.90;;;10.07;;
32295;SDS011;18781;51.550;5.418;2023-05-10T09:24:24;19.15;;;10.25;;
32295;SDS011;18781;51.550;5.418;2023-05-10T09:26:51;13.48;;;8.98;;
32295;SDS011;18781;51.550;5.418;2023-05-10T09:29:17;17.38;;;9.75;;
32295;SDS011;18781;51.550;5.418;2023-05-10T09:31:52;20.20;;;10.18;;
32295;SDS011;18781;51.550;5.418;2023-05-10T09:34:28;10.68;;;8.95;;
32295;SDS011;18781;51.550;5.418;2023-05-10T09:36:56;14.45;;;8.45;;
32295;SDS011;18781;51.550;5.418;2023-05-10T09:39:33;15.70;;;9.50;;
32295;SDS011;18781;51.550;5.418;2023-05-10T09:42:01;43.78;;;10.15;;
32295;SDS011;18781;51.550;5.418;2023-05-10T09:44:31;17.38;;;8.70;;
32295;SDS011;18781;51.550;5.418;2023-05-10T09:46:58;14.60;;;9.00;;
32295;SDS011;18781;51.550;5.418;2023-05-10T09:49:23;13.88;;;8.50;;
32295;SDS011;18781;51.550;5.418;2023-05-10T09:54:28;11.75;;;8.30;;
32295;SDS011;18781;51.550;5.418;2023-05-10T09:56:53;16.55;;;8.73;;
32295;SDS011;18781;51.550;5.418;2023-05-10T09:59:19;14.60;;;8.38;;
32295;SDS011;18781;51.550;5.418;2023-05-10T10:01:51;13.07;;;8.43;;
32295;SDS011;18781;51.550;5.418;2023-05-10T10:04:18;15.40;;;8.82;;
32295;SDS011;18781;51.550;5.418;2023-05-10T10:06:45;11.68;;;8.10;;
32295;SDS011;18781;51.550;5.418;2023-05-10T10:09:11;15.00;;;7.68;;
32295;SDS011;18781;51.550;5.418;2023-05-10T10:11:38;13.48;;;8.18;;
32295;SDS011;18781;51.550;5.418;2023-05-10T10:14:05;16.42;;;8.52;;
32295;SDS011;18781;51.550;5.418;2023-05-10T10:16:31;17.27;;;8.18;;
32295;SDS011;18781;51.550;5.418;2023-05-10T10:18:57;15.50;;;8.18;;
32295;SDS011;18781;51.550;5.418;2023-05-10T10:21:23;10.50;;;7.00;;
32295;SDS011;18781;51.550;5.418;2023-05-10T10:23:49;15.07;;;7.10;;
32295;SDS011;18781;51.550;5.418;2023-05-10T10:26:16;9.90;;;6.75;;
32295;SDS011;18781;51.550;5.418;2023-05-10T10:31:39;11.75;;;6.80;;
32295;SDS011;18781;51.550;5.418;2023-05-10T10:34:17;11.23;;;6.95;;
32295;SDS011;18781;51.550;5.418;2023-05-10T10:36:51;14.10;;;7.15;;
32295;SDS011;18781;51.550;5.418;2023-05-10T10:39:17;12.77;;;6.63;;
32295;SDS011;18781;51.550;5.418;2023-05-10T10:41:52;12.80;;;6.45;;
32295;SDS011;18781;51.550;5.418;2023-05-10T10:49:25;11.05;;;6.80;;
32295;SDS011;18781;51.550;5.418;2023-05-10T10:55:01;12.73;;;6.38;;
32295;SDS011;18781;51.550;5.418;2023-05-10T10:57:32;13.07;;;6.78;;
32295;SDS011;18781;51.550;5.418;2023-05-10T11:00:18;14.30;;;7.10;;
32295;SDS011;18781;51.550;5.418;2023-05-10T11:02:48;12.25;;;7.20;;
32295;SDS011;18781;51.550;5.418;2023-05-10T11:05:35;12.80;;;7.05;;
32295;SDS011;18781;51.550;5.418;2023-05-10T11:08:09;12.52;;;8.27;;
32295;SDS011;18781;51.550;5.418;2023-05-10T11:16:10;18.05;;;10.05;;
32295;SDS011;18781;51.550;5.418;2023-05-10T11:21:21;14.45;;;8.90;;
32295;SDS011;18781;51.550;5.418;2023-05-10T11:23:51;16.98;;;9.20;;
32295;SDS011;18781;51.550;5.418;2023-05-10T11:26:21;14.32;;;8.93;;
32295;SDS011;18781;51.550;5.418;2023-05-10T11:28:51;14.05;;;8.60;;
32295;SDS011;18781;51.550;5.418;2023-05-10T11:31:19;10.77;;;8.63;;
32295;SDS011;18781;51.550;5.418;2023-05-10T11:33:49;13.38;;;8.02;;
32295;SDS011;18781;51.550;5.418;2023-05-10T11:36:34;11.63;;;7.63;;
32295;SDS011;18781;51.550;5.418;2023-05-10T11:39:00;12.23;;;7.50;;
32295;SDS011;18781;51.550;5.418;2023-05-10T11:41:28;10.48;;;8.05;;
32295;SDS011;18781;51.550;5.418;2023-05-10T11:43:55;13.48;;;8.40;;
32295;SDS011;18781;51.550;5.418;2023-05-10T11:46:25;14.18;;;7.88;;
32295;SDS011;18781;51.550;5.418;2023-05-10T11:48:53;11.02;;;7.50;;
32295;SDS011;18781;51.550;5.418;2023-05-10T11:51:25;11.57;;;7.47;;
32295;SDS011;18781;51.550;5.418;2023-05-10T11:53:52;11.45;;;7.32;;
32295;SDS011;18781;51.550;5.418;2023-05-10T11:56:19;10.00;;;7.40;;
32295;SDS011;18781;51.550;5.418;2023-05-10T11:58:53;10.02;;;7.70;;
32295;SDS011;18781;51.550;5.418;2023-05-10T12:01:20;10.18;;;8.05;;
32295;SDS011;18781;51.550;5.418;2023-05-10T12:03:47;15.57;;;8.52;;
32295;SDS011;18781;51.550;5.418;2023-05-10T12:06:14;13.52;;;9.10;;
32295;SDS011;18781;51.550;5.418;2023-05-10T12:08:43;15.60;;;10.57;;
32295;SDS011;18781;51.550;5.418;2023-05-10T12:11:11;11.98;;;10.77;;
32295;SDS011;18781;51.550;5.418;2023-05-10T12:13:43;16.70;;;11.40;;
32295;SDS011;18781;51.550;5.418;2023-05-10T12:16:13;16.30;;;10.80;;
32295;SDS011;18781;51.550;5.418;2023-05-10T12:18:40;17.73;;;11.90;;
32295;SDS011;18781;51.550;5.418;2023-05-10T12:21:07;25.02;;;12.30;;
32295;SDS011;18781;51.550;5.418;2023-05-10T12:23:40;19.30;;;11.27;;
32295;SDS011;18781;51.550;5.418;2023-05-10T12:26:08;16.50;;;10.57;;
32295;SDS011;18781;51.550;5.418;2023-05-10T12:28:35;13.00;;;10.97;;
32295;SDS011;18781;51.550;5.418;2023-05-10T12:31:02;13.63;;;10.95;;
32295;SDS011;18781;51.550;5.418;2023-05-10T12:33:34;12.23;;;10.27;;
32295;SDS011;18781;51.550;5.418;2023-05-10T12:36:08;13.60;;;10.85;;
32295;SDS011;18781;51.550;5.418;2023-05-10T12:38:36;13.95;;;11.00;;
32295;SDS011;18781;51.550;5.418;2023-05-10T12:41:11;14.77;;;11.57;;
32295;SDS011;18781;51.550;5.418;2023-05-10T12:43:38;14.00;;;10.57;;
32295;SDS011;18781;51.550;5.418;2023-05-10T12:46:07;11.68;;;10.23;;
32295;SDS011;18781;51.550;5.418;2023-05-10T12:48:37;12.70;;;10.07;;
32295;SDS011;18781;51.550;5.418;2023-05-10T12:51:21;15.05;;;10.10;;
32295;SDS011;18781;51.550;5.418;2023-05-10T12:53:47;13.23;;;10.10;;
32295;SDS011;18781;51.550;5.418;2023-05-10T12:56:13;13.52;;;10.07;;
32295;SDS011;18781;51.550;5.418;2023-05-10T12:58:38;16.35;;;10.38;;
32295;SDS011;18781;51.550;5.418;2023-05-10T13:01:04;11.73;;;10.48;;
32295;SDS011;18781;51.550;5.418;2023-05-10T13:03:30;10.80;;;9.70;;
32295;SDS011;18781;51.550;5.418;2023-05-10T13:05:55;13.40;;;10.80;;
32295;SDS011;18781;51.550;5.418;2023-05-10T13:08:21;13.15;;;11.70;;
32295;SDS011;18781;51.550;5.418;2023-05-10T13:10:47;17.77;;;13.27;;
32295;SDS011;18781;51.550;5.418;2023-05-10T13:13:12;14.85;;;13.00;;
32295;SDS011;18781;51.550;5.418;2023-05-10T13:15:38;15.43;;;13.40;;
32295;SDS011;18781;51.550;5.418;2023-05-10T13:18:03;15.60;;;12.05;;
32295;SDS011;18781;51.550;5.418;2023-05-10T13:20:29;14.48;;;11.35;;
32295;SDS011;18781;51.550;5.418;2023-05-10T13:22:55;15.95;;;11.90;;
32295;SDS011;18781;51.550;5.418;2023-05-10T13:25:20;15.05;;;11.90;;
32295;SDS011;18781;51.550;5.418;2023-05-10T13:27:46;14.65;;;11.38;;
32295;SDS011;18781;51.550;5.418;2023-05-10T13:30:11;15.90;;;10.93;;
32295;SDS011;18781;51.550;5.418;2023-05-10T13:32:37;13.52;;;10.40;;
32295;SDS011;18781;51.550;5.418;2023-05-10T13:35:04;13.50;;;10.45;;
32295;SDS011;18781;51.550;5.418;2023-05-10T13:37:30;18.55;;;10.95;;
32295;SDS011;18781;51.550;5.418;2023-05-10T13:39:57;15.70;;;12.30;;
32295;SDS011;18781;51.550;5.418;2023-05-10T13:42:22;18.23;;;14.77;;
32295;SDS011;18781;51.550;5.418;2023-05-10T13:44:48;19.60;;;15.98;;
32295;SDS011;18781;51.550;5.418;2023-05-10T13:47:14;20.60;;;16.17;;
32295;SDS011;18781;51.550;5.418;2023-05-10T13:49:40;24.48;;;17.17;;
32295;SDS011;18781;51.550;5.418;2023-05-10T13:52:06;22.30;;;16.65;;
32295;SDS011;18781;51.550;5.418;2023-05-10T13:54:34;22.48;;;16.92;;
32295;SDS011;18781;51.550;5.418;2023-05-10T13:57:01;22.85;;;16.33;;
32295;SDS011;18781;51.550;5.418;2023-05-10T13:59:26;22.45;;;16.90;;
32295;SDS011;18781;51.550;5.418;2023-05-10T14:01:52;21.67;;;17.20;;
32295;SDS011;18781;51.550;5.418;2023-05-10T14:04:17;22.48;;;17.50;;
32295;SDS011;18781;51.550;5.418;2023-05-10T14:06:43;22.33;;;16.38;;
32295;SDS011;18781;51.550;5.418;2023-05-10T14:09:09;19.38;;;15.00;;
32295;SDS011;18781;51.550;5.418;2023-05-10T14:11:34;21.85;;;16.20;;
32295;SDS011;18781;51.550;5.418;2023-05-10T14:14:00;20.23;;;16.33;;
32295;SDS011;18781;51.550;5.418;2023-05-10T14:16:26;21.05;;;15.85;;
32295;SDS011;18781;51.550;5.418;2023-05-10T14:18:52;21.90;;;15.63;;
32295;SDS011;18781;51.550;5.418;2023-05-10T14:21:18;19.05;;;14.55;;
32295;SDS011;18781;51.550;5.418;2023-05-10T14:23:43;19.55;;;14.32;;
32295;SDS011;18781;51.550;5.418;2023-05-10T14:26:12;18.42;;;13.30;;
32295;SDS011;18781;51.550;5.418;2023-05-10T14:28:38;17.30;;;12.82;;
32295;SDS011;18781;51.550;5.418;2023-05-10T14:31:03;17.10;;;12.95;;
32295;SDS011;18781;51.550;5.418;2023-05-10T14:33:30;19.13;;;12.98;;
32295;SDS011;18781;51.550;5.418;2023-05-10T14:35:56;16.13;;;12.15;;
32295;SDS011;18781;51.550;5.418;2023-05-10T14:38:22;17.25;;;12.23;;
32295;SDS011;18781;51.550;5.418;2023-05-10T14:40:48;15.70;;;11.20;;
32295;SDS011;18781;51.550;5.418;2023-05-10T14:43:14;13.50;;;11.30;;
32295;SDS011;18781;51.550;5.418;2023-05-10T14:45:40;15.82;;;10.35;;
32295;SDS011;18781;51.550;5.418;2023-05-10T14:48:06;13.45;;;10.85;;
32295;SDS011;18781;51.550;5.418;2023-05-10T14:50:36;14.85;;;10.30;;
32295;SDS011;18781;51.550;5.418;2023-05-10T14:53:01;15.18;;;10.90;;
32295;SDS011;18781;51.550;5.418;2023-05-10T14:55:27;13.10;;;10.90;;
32295;SDS011;18781;51.550;5.418;2023-05-10T14:57:52;16.15;;;12.35;;
32295;SDS011;18781;51.550;5.418;2023-05-10T15:00:19;13.75;;;11.55;;
32295;SDS011;18781;51.550;5.418;2023-05-10T15:02:45;15.77;;;11.23;;
32295;SDS011;18781;51.550;5.418;2023-05-10T15:05:10;15.55;;;11.77;;